Ascutney, Vermont
Current Conditions -  °F | °C
As of 10:54 PM on Monday 20 Oct 2014 (Local Time) from KVSF Reporting Station
Overcast Overcast  
Wind Chill: 45°   Ceiling: 9000
Heat Index: 45°   Visibility: 10mi
Dew Point: 40°   Wind: 0mph
Humidity: 82%   Direction: NA
Pressure: 29.97"   Gusts: NA
Location:  43.41°N, 72.41°W
Report Text: KVSF 210254Z AUTO 00000KT 10SM OVC090 07/04 A2997 RMK AO2 SLP152 T00720044 50005
Loading
Personal Weather Stations






























Interactive Weather Map
Tropical Storm Tracking
New forecast layout! Learn more

10-Day Weather Forecast

Advertisements
Track Severe Weather on mobile